Time;durP1;ratioP1;P1;durP2;ratioP2;P2;SDS_P1;SDS_P2;PMS_P1;PMS_P2;Temp;Humidity;BMP_temperature;BMP_pressure;BME280_temperature;BME280_humidity;BME280_pressure;Samples;Min_cycle;Max_cycle;Signal;HPM_P1;HPM_P2
2020/12/05 00:00:57;;;;;;;16.63;11.68;;;3.10;99.90;;;;;;4937764;29;20185;-75
2020/12/05 00:03:24;;;;;;;17.95;13.52;;;3.20;99.90;;;;;;4937247;29;20181;-75
2020/12/05 00:05:51;;;;;;;26.30;13.20;;;3.30;99.90;;;;;;4935547;29;20304;-75
2020/12/05 00:08:19;;;;;;;17.00;11.73;;;3.30;99.90;;;;;;4936849;29;20199;-76
2020/12/05 00:10:47;;;;;;;23.27;11.75;;;3.30;99.90;;;;;;4938349;29;20193;-76
2020/12/05 00:13:15;;;;;;;22.50;14.32;;;3.30;99.90;;;;;;4938601;29;20267;-74
2020/12/05 00:15:42;;;;;;;28.38;13.57;;;3.30;99.90;;;;;;4937979;29;20208;-75
2020/12/05 00:18:10;;;;;;;22.23;13.57;;;3.30;99.90;;;;;;4938220;29;20181;-75
2020/12/05 00:20:37;;;;;;;16.20;9.73;;;3.20;99.90;;;;;;4938887;29;20516;-75
2020/12/05 00:23:05;;;;;;;18.27;13.00;;;3.30;99.90;;;;;;4935569;29;20193;-75
2020/12/05 00:25:32;;;;;;;15.65;10.95;;;3.20;99.90;;;;;;4936216;29;20229;-75
2020/12/05 00:28:00;;;;;;;14.32;9.85;;;3.00;99.90;;;;;;4936990;29;20350;-76
2020/12/05 00:30:28;;;;;;;17.17;10.15;;;3.00;99.90;;;;;;4939191;29;20189;-75
2020/12/05 00:32:59;;;;;;;23.08;11.52;;;2.90;99.90;;;;;;4936865;29;20191;-76
2020/12/05 00:35:26;;;;;;;14.60;10.95;;;2.90;99.90;;;;;;4936880;29;20675;-75
2020/12/05 00:37:54;;;;;;;22.20;13.88;;;2.80;99.90;;;;;;4936182;29;20196;-76
2020/12/05 00:40:23;;;;;;;20.33;12.70;;;2.80;99.90;;;;;;4936727;29;20660;-76
2020/12/05 00:42:50;;;;;;;19.38;12.77;;;2.70;99.90;;;;;;4936119;29;20193;-76
2020/12/05 00:45:18;;;;;;;23.45;12.45;;;2.70;99.90;;;;;;4936267;29;20213;-75
2020/12/05 00:47:46;;;;;;;29.58;12.43;;;2.70;99.90;;;;;;4937747;29;20739;-75
2020/12/05 00:50:13;;;;;;;16.25;8.98;;;2.60;99.90;;;;;;4937177;29;20239;-75
2020/12/05 00:52:40;;;;;;;20.48;11.57;;;2.50;99.90;;;;;;4936620;29;20202;-75
2020/12/05 00:55:08;;;;;;;15.65;10.95;;;2.50;99.90;;;;;;4937612;29;20220;-75
2020/12/05 00:57:37;;;;;;;23.40;12.88;;;2.40;99.90;;;;;;4936214;29;20248;-74
2020/12/05 01:00:06;;;;;;;29.70;13.77;;;2.30;99.90;;;;;;4936476;29;20735;-74
2020/12/05 01:02:35;;;;;;;16.98;12.05;;;2.30;99.90;;;;;;4937062;29;20185;-76
2020/12/05 01:05:02;;;;;;;35.42;16.65;;;2.30;99.90;;;;;;4937190;29;20215;-75
2020/12/05 01:07:30;;;;;;;26.20;12.82;;;2.30;99.90;;;;;;4935651;29;20200;-75
2020/12/05 01:09:57;;;;;;;22.58;14.77;;;2.20;99.90;;;;;;4936884;29;20181;-76
2020/12/05 01:12:24;;;;;;;15.23;12.27;;;2.20;99.90;;;;;;4937072;29;20174;-75
2020/12/05 01:14:52;;;;;;;19.23;12.20;;;2.20;99.90;;;;;;4937457;29;20279;-75
2020/12/05 01:17:23;;;;;;;16.75;11.13;;;2.20;99.90;;;;;;4940781;29;20257;-76
2020/12/05 01:19:53;;;;;;;21.45;11.85;;;2.20;99.90;;;;;;4938487;29;20605;-74
2020/12/05 01:22:21;;;;;;;14.63;9.98;;;2.20;99.90;;;;;;4939440;29;20240;-75
2020/12/05 01:24:48;;;;;;;23.67;12.27;;;2.20;99.90;;;;;;4939485;29;20593;-75
2020/12/05 01:27:16;;;;;;;15.85;11.73;;;2.20;99.90;;;;;;4940361;29;20213;-75
2020/12/05 01:29:43;;;;;;;22.27;10.93;;;2.30;99.90;;;;;;4937222;29;20192;-75
2020/12/05 01:32:11;;;;;;;25.42;12.25;;;2.20;99.90;;;;;;4935253;29;20256;-75
2020/12/05 01:34:38;;;;;;;11.15;9.15;;;2.20;99.90;;;;;;4935015;29;20637;-75
2020/12/05 01:37:07;;;;;;;20.20;11.18;;;2.20;99.90;;;;;;4936981;29;20236;-75
2020/12/05 01:39:34;;;;;;;23.65;11.18;;;2.10;99.90;;;;;;4936664;29;20181;-75
2020/12/05 01:42:01;;;;;;;13.93;10.48;;;2.10;99.90;;;;;;4936557;29;20662;-76
2020/12/05 01:44:30;;;;;;;18.20;11.05;;;2.00;99.90;;;;;;4937863;29;20224;-75
2020/12/05 01:46:58;;;;;;;16.75;10.15;;;2.00;99.90;;;;;;4937297;29;20203;-75
2020/12/05 01:49:26;;;;;;;18.15;11.38;;;1.90;99.90;;;;;;4935279;29;20211;-75
2020/12/05 01:51:56;;;;;;;19.02;12.02;;;1.90;99.90;;;;;;4937023;29;20211;-75
2020/12/05 01:54:24;;;;;;;13.93;10.25;;;1.90;99.90;;;;;;4936932;29;20775;-75
2020/12/05 01:56:57;;;;;;;20.00;11.30;;;1.80;99.90;;;;;;4938217;29;20747;-74
2020/12/05 01:59:25;;;;;;;16.95;13.15;;;1.80;99.90;;;;;;4941164;29;20184;-75
2020/12/05 02:01:55;;;;;;;18.45;11.73;;;1.80;99.90;;;;;;4942093;29;20310;-74
2020/12/05 02:04:23;;;;;;;17.65;9.23;;;1.80;99.90;;;;;;4943425;29;20664;-74
2020/12/05 02:07:10;;;;;;;17.30;12.88;;;1.80;99.90;;;;;;4942852;29;20183;-75
2020/12/05 02:09:43;;;;;;;12.68;9.90;;;1.80;99.90;;;;;;4938789;29;20193;-74
2020/12/05 02:12:39;;;;;;;18.45;12.48;;;1.70;99.90;;;;;;4940372;29;20589;-76
2020/12/05 02:15:10;;;;;;;21.02;11.80;;;1.80;99.90;;;;;;4939693;29;20772;-76
2020/12/05 02:17:43;;;;;;;14.32;11.50;;;1.80;99.90;;;;;;4939830;29;20319;-76
2020/12/05 02:20:13;;;;;;;21.65;11.95;;;1.80;99.90;;;;;;4939528;29;20259;-75
2020/12/05 02:22:45;;;;;;;18.48;10.15;;;1.80;99.90;;;;;;4939751;29;20193;-74
2020/12/05 02:25:14;;;;;;;22.75;11.05;;;1.90;99.90;;;;;;4939364;29;20590;-75
2020/12/05 02:27:42;;;;;;;12.88;9.45;;;1.90;99.90;;;;;;4939347;29;20173;-75
2020/12/05 02:30:11;;;;;;;33.15;13.50;;;1.90;99.90;;;;;;4939372;29;20189;-75
2020/12/05 02:32:38;;;;;;;31.67;14.57;;;1.90;99.90;;;;;;4938819;29;20219;-74
2020/12/05 02:35:07;;;;;;;19.77;13.25;;;1.90;99.90;;;;;;4939933;29;20212;-76
2020/12/05 02:37:41;;;;;;;15.32;12.10;;;1.90;99.90;;;;;;4940237;29;20180;-76
2020/12/05 02:40:11;;;;;;;17.55;9.90;;;1.90;99.90;;;;;;4940083;29;20185;-74
2020/12/05 02:42:39;;;;;;;18.63;11.40;;;2.00;99.90;;;;;;4938214;29;20189;-74
2020/12/05 02:45:10;;;;;;;17.80;10.50;;;2.10;99.90;;;;;;4939438;29;20209;-74
2020/12/05 02:47:37;;;;;;;15.43;11.02;;;2.20;99.90;;;;;;4938939;29;20224;-74
2020/12/05 02:50:05;;;;;;;12.90;9.98;;;2.40;99.90;;;;;;4939439;29;20229;-75
2020/12/05 02:52:36;;;;;;;17.92;11.60;;;2.50;99.90;;;;;;4939582;29;20244;-75
2020/12/05 02:55:03;;;;;;;13.05;9.20;;;2.60;99.90;;;;;;4938641;29;20263;-75
2020/12/05 02:57:30;;;;;;;19.98;12.68;;;2.60;99.90;;;;;;4941453;29;20776;-75
2020/12/05 02:59:58;;;;;;;19.17;9.65;;;2.70;99.90;;;;;;4941402;29;20189;-75
2020/12/05 03:02:25;;;;;;;17.55;8.88;;;2.70;99.90;;;;;;4941560;29;20189;-75
2020/12/05 03:04:53;;;;;;;20.33;11.27;;;2.70;99.90;;;;;;4942515;29;20211;-76
2020/12/05 03:07:20;;;;;;;14.75;9.73;;;2.70;99.90;;;;;;4942615;29;20189;-75
2020/12/05 03:09:47;;;;;;;14.40;10.77;;;2.70;99.90;;;;;;4942145;29;20212;-75
2020/12/05 03:12:15;;;;;;;17.88;11.15;;;2.70;99.90;;;;;;4944255;29;20211;-75
2020/12/05 03:14:42;;;;;;;22.42;12.95;;;2.60;99.90;;;;;;4944850;29;20208;-75
2020/12/05 03:17:11;;;;;;;15.90;8.07;;;2.60;99.90;;;;;;4946205;29;20288;-75
2020/12/05 03:19:38;;;;;;;13.43;9.82;;;2.50;99.90;;;;;;4947000;29;20213;-75
2020/12/05 03:22:06;;;;;;;17.95;13.18;;;2.40;99.90;;;;;;4945279;29;20248;-74
2020/12/05 03:24:33;;;;;;;14.43;9.32;;;2.40;99.90;;;;;;4943075;29;20220;-74
2020/12/05 03:27:01;;;;;;;17.60;11.23;;;2.40;99.90;;;;;;4943132;29;20189;-75
2020/12/05 03:29:28;;;;;;;17.52;9.98;;;2.30;99.90;;;;;;4946370;29;20539;-75
2020/12/05 03:31:58;;;;;;;17.13;11.27;;;2.30;99.90;;;;;;4942948;29;20212;-75
2020/12/05 03:34:26;;;;;;;15.02;9.32;;;2.30;99.90;;;;;;4940031;29;20224;-75
2020/12/05 03:36:53;;;;;;;19.52;13.13;;;2.30;99.90;;;;;;4938804;29;20212;-75
2020/12/05 03:39:21;;;;;;;19.13;11.25;;;2.30;99.90;;;;;;4939886;29;20256;-75
2020/12/05 03:41:48;;;;;;;30.65;11.73;;;2.20;99.90;;;;;;4938945;29;20185;-75
2020/12/05 03:44:15;;;;;;;16.90;9.98;;;2.30;99.90;;;;;;4939960;29;20216;-75
2020/12/05 03:46:46;;;;;;;17.38;10.93;;;2.20;99.90;;;;;;4938770;29;20299;-74
2020/12/05 03:49:13;;;;;;;16.25;9.57;;;2.20;99.90;;;;;;4939902;29;20244;-75
2020/12/05 03:51:41;;;;;;;13.60;8.88;;;2.20;99.90;;;;;;4941387;29;20181;-75
2020/12/05 03:54:08;;;;;;;22.02;12.40;;;2.30;99.90;;;;;;4939647;29;20236;-75
2020/12/05 03:56:36;;;;;;;11.88;8.93;;;2.30;99.90;;;;;;4941074;29;20189;-75
2020/12/05 03:59:03;;;;;;;16.75;9.20;;;2.30;99.90;;;;;;4940744;29;20185;-75
2020/12/05 04:01:30;;;;;;;17.52;9.88;;;2.30;99.90;;;;;;4939579;29;20201;-76
2020/12/05 04:03:57;;;;;;;17.60;10.50;;;2.30;99.90;;;;;;4937850;29;20188;-75
2020/12/05 04:06:25;;;;;;;13.65;9.40;;;2.40;99.90;;;;;;4938269;29;20204;-75
2020/12/05 04:08:54;;;;;;;18.60;9.88;;;2.40;99.90;;;;;;4938489;29;20252;-75
2020/12/05 04:11:21;;;;;;;15.77;10.60;;;2.40;99.90;;;;;;4938027;29;20576;-75
2020/12/05 04:13:48;;;;;;;14.93;9.73;;;2.40;99.90;;;;;;4937305;29;20196;-76
2020/12/05 04:16:15;;;;;;;16.23;9.52;;;2.40;99.90;;;;;;4935907;29;20256;-75
2020/12/05 04:18:43;;;;;;;20.80;13.23;;;2.20;99.90;;;;;;4937607;29;20189;-76
2020/12/05 04:21:10;;;;;;;14.15;7.32;;;2.20;99.90;;;;;;4937214;29;20216;-74
2020/12/05 04:23:37;;;;;;;11.38;8.13;;;2.10;99.90;;;;;;4937824;29;20197;-76
2020/12/05 04:26:05;;;;;;;15.43;10.65;;;2.10;99.90;;;;;;4937672;29;20217;-75
2020/12/05 04:28:32;;;;;;;19.40;12.27;;;2.00;99.90;;;;;;4937772;29;20208;-75
2020/12/05 04:31:00;;;;;;;14.93;10.07;;;2.00;99.90;;;;;;4936618;29;20671;-75
2020/12/05 04:33:27;;;;;;;15.32;10.98;;;1.90;99.90;;;;;;4936846;29;20675;-75
2020/12/05 04:35:54;;;;;;;9.50;7.10;;;1.90;99.90;;;;;;4937506;29;20622;-75
2020/12/05 04:38:22;;;;;;;19.30;13.00;;;1.90;99.90;;;;;;4937330;29;20185;-75
2020/12/05 04:40:49;;;;;;;15.00;10.05;;;1.90;99.90;;;;;;4937089;29;20189;-75
2020/12/05 04:43:17;;;;;;;12.02;6.72;;;2.00;99.90;;;;;;4936998;29;20564;-74
2020/12/05 04:45:44;;;;;;;17.58;9.82;;;2.00;99.90;;;;;;4936364;29;20208;-75
2020/12/05 04:48:14;;;;;;;16.13;11.50;;;2.10;99.90;;;;;;4936067;29;20188;-75
2020/12/05 04:50:45;;;;;;;12.30;10.13;;;2.20;99.90;;;;;;4935073;29;20279;-75
2020/12/05 04:53:18;;;;;;;10.70;8.50;;;2.30;99.90;;;;;;4937399;29;20192;-75
2020/12/05 04:55:45;;;;;;;22.02;10.45;;;2.40;99.90;;;;;;4937920;29;20614;-75
2020/12/05 04:58:18;;;;;;;18.90;10.65;;;2.50;99.90;;;;;;4937526;29;20189;-75
2020/12/05 05:00:46;;;;;;;14.57;8.60;;;2.60;99.90;;;;;;4938399;29;20197;-76
2020/12/05 05:03:20;;;;;;;11.25;6.88;;;2.70;99.90;;;;;;4938600;29;20189;-75
2020/12/05 05:05:48;;;;;;;13.10;9.55;;;2.80;99.90;;;;;;4938316;29;20212;-76
2020/12/05 05:08:16;;;;;;;22.35;11.30;;;2.90;99.90;;;;;;4938337;29;20196;-76
2020/12/05 05:10:44;;;;;;;17.80;9.77;;;2.80;99.90;;;;;;4935989;29;20615;-75
2020/12/05 05:13:16;;;;;;;13.15;8.05;;;2.80;99.90;;;;;;4934286;29;20201;-75
2020/12/05 05:15:45;;;;;;;11.23;8.90;;;2.90;99.90;;;;;;4935927;29;20279;-75
2020/12/05 05:18:13;;;;;;;10.10;9.10;;;2.90;99.90;;;;;;4935725;29;20218;-75
2020/12/05 05:20:42;;;;;;;11.50;9.05;;;3.00;99.90;;;;;;4935811;29;20185;-75
2020/12/05 05:23:12;;;;;;;12.90;8.60;;;3.00;99.90;;;;;;4935795;29;20184;-75
2020/12/05 05:25:57;;;;;;;11.50;10.13;;;3.00;99.90;;;;;;4960739;23;20233;-42
2020/12/05 05:28:28;;;;;;;19.30;9.35;;;2.90;99.90;;;;;;4925142;29;20236;-45
2020/12/05 05:31:01;;;;;;;12.85;9.15;;;2.90;99.90;;;;;;4933374;29;20189;-44
2020/12/05 05:33:38;;;;;;;13.43;10.85;;;2.90;99.90;;;;;;4935989;29;20195;-47
2020/12/05 05:36:17;;;;;;;13.65;9.27;;;2.90;99.90;;;;;;4937171;29;20208;-49
2020/12/05 05:38:44;;;;;;;17.60;8.05;;;2.80;99.90;;;;;;4937200;29;20547;-44
2020/12/05 05:41:15;;;;;;;20.98;10.63;;;2.80;99.90;;;;;;4937039;29;20193;-46
2020/12/05 05:43:55;;;;;;;20.15;11.98;;;2.70;99.90;;;;;;4937340;29;20204;-48
2020/12/05 05:46:28;;;;;;;14.20;10.32;;;2.70;99.90;;;;;;4936669;29;20555;-41
2020/12/05 05:48:56;;;;;;;18.15;10.10;;;2.60;99.90;;;;;;4937111;29;20705;-49
2020/12/05 05:51:41;;;;;;;16.88;10.75;;;2.60;99.90;;;;;;4936866;29;20231;-48
2020/12/05 05:54:19;;;;;;;13.75;10.75;;;2.70;99.90;;;;;;4936866;29;20196;-42
2020/12/05 05:57:05;;;;;;;14.05;9.15;;;2.60;99.90;;;;;;4936907;29;20245;-45
2020/12/05 05:59:33;;;;;;;10.77;7.50;;;2.60;99.90;;;;;;4937008;29;20189;-44
2020/12/05 06:02:02;;;;;;;15.93;10.10;;;2.60;99.90;;;;;;4937588;29;20527;-43
2020/12/05 06:04:32;;;;;;;15.00;9.38;;;2.50;99.90;;;;;;4937777;29;20193;-49
2020/12/05 06:07:01;;;;;;;17.20;9.15;;;2.50;99.90;;;;;;4937448;29;20233;-44
2020/12/05 06:09:35;;;;;;;11.90;7.70;;;2.50;99.90;;;;;;4937670;29;20208;-43
2020/12/05 06:12:03;;;;;;;13.90;8.32;;;2.40;99.90;;;;;;4937184;29;20181;-48
2020/12/05 06:14:30;;;;;;;10.93;9.23;;;2.40;99.90;;;;;;4937529;29;20527;-43
2020/12/05 06:16:58;;;;;;;20.13;10.52;;;2.40;99.90;;;;;;4937074;29;20177;-46
2020/12/05 06:19:27;;;;;;;14.35;10.70;;;2.40;99.90;;;;;;4936623;29;20224;-40
2020/12/05 06:21:56;;;;;;;13.65;8.65;;;2.40;99.90;;;;;;4936873;29;20855;-39
2020/12/05 06:24:38;;;;;;;16.17;9.45;;;2.40;99.90;;;;;;4936118;29;20205;-40
2020/12/05 06:27:08;;;;;;;9.73;7.07;;;2.40;99.90;;;;;;4936664;29;20852;-44
2020/12/05 06:29:39;;;;;;;10.82;9.15;;;2.30;99.90;;;;;;4936629;29;20185;-46
2020/12/05 06:32:06;;;;;;;12.30;7.13;;;2.30;99.90;;;;;;4936565;29;20193;-49
2020/12/05 06:34:42;;;;;;;16.92;8.38;;;2.30;99.90;;;;;;4936839;29;20197;-46
2020/12/05 06:37:11;;;;;;;11.43;8.88;;;2.40;99.90;;;;;;4936510;29;20184;-42
2020/12/05 06:39:39;;;;;;;12.38;8.60;;;2.40;99.90;;;;;;4936234;29;20376;-46
2020/12/05 06:42:18;;;;;;;8.73;6.90;;;2.40;99.90;;;;;;4936315;29;20240;-49
2020/12/05 06:44:45;;;;;;;12.35;6.95;;;2.40;99.90;;;;;;4936036;29;20217;-47
2020/12/05 06:47:24;;;;;;;13.88;9.40;;;2.40;99.90;;;;;;4935893;29;20215;-50
2020/12/05 06:49:56;;;;;;;12.70;8.95;;;2.40;99.90;;;;;;4936062;29;20201;-41
2020/12/05 06:52:41;;;;;;;16.83;10.63;;;2.30;99.90;;;;;;4935977;29;20193;-44
2020/12/05 06:55:14;;;;;;;13.55;8.73;;;2.30;99.90;;;;;;4936025;29;20216;-44
2020/12/05 06:57:42;;;;;;;14.30;9.05;;;2.40;99.90;;;;;;4935900;29;20188;-41
2020/12/05 07:00:23;;;;;;;10.82;8.52;;;2.40;99.90;;;;;;4935833;29;20197;-43
2020/12/05 07:02:59;;;;;;;10.18;7.75;;;2.40;99.90;;;;;;4936015;29;20681;-48
2020/12/05 07:05:35;;;;;;;12.75;8.73;;;2.50;99.90;;;;;;4934757;29;20224;-44
2020/12/05 07:08:19;;;;;;;16.50;10.02;;;2.50;99.90;;;;;;4935940;29;20181;-42
2020/12/05 07:10:50;;;;;;;18.48;9.25;;;2.60;99.90;;;;;;4935947;29;20191;-43
2020/12/05 07:13:18;;;;;;;8.90;8.00;;;2.60;99.90;;;;;;4935711;29;20181;-49
2020/12/05 07:15:46;;;;;;;14.60;9.00;;;2.70;99.90;;;;;;4935740;29;20217;-42
2020/12/05 07:18:34;;;;;;;13.05;8.85;;;2.70;99.90;;;;;;4935713;29;20665;-44
2020/12/05 07:21:05;;;;;;;9.13;7.43;;;2.80;99.90;;;;;;4932786;29;20196;-45
2020/12/05 07:23:33;;;;;;;14.18;9.07;;;2.80;99.90;;;;;;4935943;29;20188;-45
2020/12/05 07:26:01;;;;;;;8.88;6.88;;;2.90;99.90;;;;;;4935557;29;20631;-46
2020/12/05 07:28:28;;;;;;;9.50;6.68;;;2.90;99.90;;;;;;4935381;29;20177;-46
2020/12/05 07:30:56;;;;;;;13.23;9.68;;;2.90;99.90;;;;;;4935599;29;20193;-47
2020/12/05 07:33:23;;;;;;;9.90;8.73;;;3.10;99.90;;;;;;4935429;29;20187;-45
2020/12/05 07:35:58;;;;;;;12.77;8.48;;;3.10;99.90;;;;;;4935338;29;20204;-42
2020/12/05 07:38:29;;;;;;;11.55;9.30;;;3.30;99.90;;;;;;4934878;29;20576;-46
2020/12/05 07:40:57;;;;;;;14.50;9.35;;;3.30;99.90;;;;;;4935542;29;20187;-43
2020/12/05 07:43:24;;;;;;;10.00;7.97;;;3.40;99.90;;;;;;4935315;29;20252;-45
2020/12/05 07:45:53;;;;;;;11.68;10.00;;;3.40;99.90;;;;;;4935353;29;20240;-48
2020/12/05 07:48:21;;;;;;;13.90;7.30;;;3.50;99.90;;;;;;4935146;29;20177;-46
2020/12/05 07:50:49;;;;;;;9.25;7.80;;;3.60;99.90;;;;;;4935336;29;20247;-41
2020/12/05 07:53:29;;;;;;;12.52;9.00;;;3.60;99.90;;;;;;4935052;29;20185;-43
2020/12/05 07:55:56;;;;;;;10.80;6.90;;;3.70;99.90;;;;;;4933175;29;20239;-50
2020/12/05 07:58:24;;;;;;;9.60;7.72;;;3.70;99.90;;;;;;4933743;29;20197;-43
2020/12/05 08:00:55;;;;;;;11.25;8.75;;;3.80;99.90;;;;;;4935126;29;20559;-46
2020/12/05 08:03:48;;;;;;;15.52;8.80;;;3.90;99.90;;;;;;4934551;29;20195;-46
2020/12/05 08:06:25;;;;;;;9.25;7.03;;;3.90;99.90;;;;;;4934447;29;20223;-44
2020/12/05 08:09:03;;;;;;;13.18;8.70;;;3.90;99.90;;;;;;4935135;29;20837;-49
2020/12/05 08:11:42;;;;;;;14.07;9.93;;;3.90;99.90;;;;;;4935362;29;20188;-47
2020/12/05 08:14:12;;;;;;;9.23;8.32;;;3.90;99.90;;;;;;4935689;29;20184;-51
2020/12/05 08:16:39;;;;;;;12.35;8.18;;;4.00;99.90;;;;;;4935809;29;20182;-44
2020/12/05 08:19:07;;;;;;;10.23;6.95;;;4.00;99.90;;;;;;4935194;29;20560;-49
2020/12/05 08:21:35;;;;;;;12.85;8.57;;;4.10;99.90;;;;;;4935134;29;20199;-45
2020/12/05 08:24:18;;;;;;;10.90;7.45;;;4.10;99.90;;;;;;4935165;29;20240;-48
2020/12/05 08:26:49;;;;;;;15.15;8.07;;;4.30;99.90;;;;;;4935195;29;20713;-52
2020/12/05 08:29:18;;;;;;;11.88;7.25;;;4.40;99.90;;;;;;4935522;29;20647;-45
2020/12/05 08:31:46;;;;;;;11.02;7.70;;;4.40;99.90;;;;;;4934716;29;20195;-50
2020/12/05 08:34:13;;;;;;;17.00;10.52;;;4.40;99.90;;;;;;4934975;29;20197;-48
2020/12/05 08:36:44;;;;;;;14.35;8.75;;;4.60;99.90;;;;;;4935095;29;20185;-46
2020/12/05 08:39:13;;;;;;;12.48;8.02;;;4.70;99.90;;;;;;4934946;29;20180;-48
2020/12/05 08:41:46;;;;;;;12.90;7.75;;;4.80;99.90;;;;;;4934680;29;20181;-46
2020/12/05 08:44:15;;;;;;;11.82;8.38;;;5.00;99.90;;;;;;4934686;29;20208;-45
2020/12/05 08:46:42;;;;;;;16.02;10.45;;;5.10;99.90;;;;;;4934632;29;20203;-49
2020/12/05 08:49:17;;;;;;;11.20;8.02;;;5.20;99.90;;;;;;4934816;29;20196;-49
2020/12/05 08:51:47;;;;;;;16.63;9.32;;;5.20;99.90;;;;;;4934628;29;20192;-47
2020/12/05 08:54:15;;;;;;;13.32;8.80;;;5.30;99.90;;;;;;4934467;29;20247;-45
2020/12/05 08:56:42;;;;;;;12.88;8.63;;;5.30;99.90;;;;;;4934823;29;20591;-47
2020/12/05 08:59:11;;;;;;;12.55;6.75;;;5.20;99.90;;;;;;4934330;29;20259;-50
2020/12/05 09:01:39;;;;;;;9.50;8.25;;;5.20;99.90;;;;;;4934709;29;20543;-47
2020/12/05 09:04:07;;;;;;;8.27;6.95;;;5.20;99.90;;;;;;4934649;29;20195;-49
2020/12/05 09:06:34;;;;;;;12.20;9.10;;;5.20;99.90;;;;;;4933610;29;20213;-45
2020/12/05 09:09:01;;;;;;;11.35;6.22;;;5.10;99.90;;;;;;4934941;29;20189;-49
2020/12/05 09:11:29;;;;;;;11.90;6.30;;;5.10;99.90;;;;;;4935192;29;20681;-50
2020/12/05 09:13:57;;;;;;;10.40;8.80;;;5.20;99.90;;;;;;4934913;29;20188;-43
2020/12/05 09:16:33;;;;;;;17.42;10.18;;;5.20;99.90;;;;;;4914923;29;20209;-50
2020/12/05 09:19:01;;;;;;;12.20;9.55;;;5.40;99.90;;;;;;4932225;29;20208;-42
2020/12/05 09:21:35;;;;;;;11.25;8.55;;;5.40;99.90;;;;;;4934046;29;20197;-42
2020/12/05 09:24:05;;;;;;;12.80;9.68;;;5.60;99.90;;;;;;4934661;29;20188;-42
2020/12/05 09:26:33;;;;;;;14.40;9.75;;;5.70;99.90;;;;;;4933945;29;20303;-44
2020/12/05 09:29:01;;;;;;;16.10;7.70;;;6.00;99.90;;;;;;4934213;29;20185;-49
2020/12/05 09:31:28;;;;;;;12.88;7.30;;;6.10;99.90;;;;;;4933905;29;20189;-49
2020/12/05 09:33:56;;;;;;;12.00;8.23;;;6.30;99.90;;;;;;4933773;29;20196;-43
2020/12/05 09:36:23;;;;;;;13.15;8.60;;;6.40;99.90;;;;;;4933882;29;20220;-40
2020/12/05 09:38:50;;;;;;;12.98;7.63;;;6.30;99.90;;;;;;4933875;29;20556;-42
2020/12/05 09:41:17;;;;;;;9.88;7.03;;;6.30;99.90;;;;;;4933780;29;20195;-43
2020/12/05 09:43:45;;;;;;;13.45;8.25;;;6.40;99.90;;;;;;4933759;29;20189;-45
2020/12/05 09:46:12;;;;;;;10.43;6.85;;;6.50;99.90;;;;;;4933494;29;20224;-45
2020/12/05 09:48:39;;;;;;;17.58;7.80;;;6.60;99.90;;;;;;4933534;29;20244;-43
2020/12/05 09:51:07;;;;;;;11.05;6.65;;;6.60;99.90;;;;;;4934076;29;20757;-42
2020/12/05 09:53:34;;;;;;;10.32;8.98;;;6.60;99.90;;;;;;4933648;29;20245;-46
2020/12/05 09:56:01;;;;;;;11.27;9.05;;;6.50;99.90;;;;;;4933958;29;20682;-42
2020/12/05 09:58:28;;;;;;;12.95;9.20;;;6.50;99.90;;;;;;4933707;29;20562;-47
2020/12/05 10:00:56;;;;;;;10.40;8.90;;;6.50;99.90;;;;;;4933783;29;20184;-40
2020/12/05 10:03:23;;;;;;;8.38;6.90;;;6.40;99.90;;;;;;4933775;29;20200;-45
2020/12/05 10:05:50;;;;;;;10.18;7.88;;;6.40;99.90;;;;;;4933161;29;20640;-44
2020/12/05 10:08:18;;;;;;;8.60;7.68;;;6.40;99.90;;;;;;4933097;29;20539;-42
2020/12/05 10:10:45;;;;;;;10.48;7.22;;;6.40;99.90;;;;;;4932996;29;20676;-44
2020/12/05 10:13:12;;;;;;;10.02;7.22;;;6.40;99.90;;;;;;4932745;29;20193;-44
2020/12/05 10:15:39;;;;;;;10.02;6.53;;;6.40;99.90;;;;;;4933013;29;20686;-43
2020/12/05 10:18:06;;;;;;;10.93;8.10;;;6.40;99.90;;;;;;4933972;29;20265;-42
2020/12/05 10:20:33;;;;;;;12.00;6.63;;;6.50;99.90;;;;;;4936214;29;20243;-46
2020/12/05 10:23:02;;;;;;;10.88;7.53;;;6.60;99.90;;;;;;4936407;29;20192;-45
2020/12/05 10:25:32;;;;;;;8.52;6.22;;;6.70;99.90;;;;;;4935722;29;20229;-42
2020/12/05 10:27:59;;;;;;;10.20;6.97;;;7.00;99.90;;;;;;4935433;29;20284;-51
2020/12/05 10:30:26;;;;;;;9.80;6.53;;;7.30;99.90;;;;;;4935814;29;20201;-46
2020/12/05 10:32:53;;;;;;;13.35;7.57;;;7.40;99.90;;;;;;4935705;29;20200;-50
2020/12/05 10:35:20;;;;;;;13.50;8.15;;;7.50;99.90;;;;;;4935613;29;20224;-44
2020/12/05 10:37:48;;;;;;;10.55;7.00;;;7.50;99.90;;;;;;4936021;29;20200;-45
2020/12/05 10:40:15;;;;;;;9.30;6.90;;;7.60;99.90;;;;;;4936010;29;20210;-46
2020/12/05 10:42:43;;;;;;;9.85;6.75;;;7.70;99.90;;;;;;4936334;29;20667;-45
2020/12/05 10:45:10;;;;;;;10.95;7.13;;;7.70;99.90;;;;;;4936166;29;20690;-47
2020/12/05 10:47:37;;;;;;;9.02;6.78;;;7.80;99.90;;;;;;4935425;29;20213;-45
2020/12/05 10:50:04;;;;;;;10.23;6.78;;;7.80;99.90;;;;;;4936683;29;20185;-42
2020/12/05 10:52:31;;;;;;;13.75;7.03;;;7.80;99.90;;;;;;4935061;29;20201;-53
2020/12/05 10:54:58;;;;;;;13.95;8.75;;;7.80;99.90;;;;;;4936655;29;20705;-47
2020/12/05 10:57:25;;;;;;;9.52;7.30;;;7.90;99.90;;;;;;4936287;29;20193;-50
2020/12/05 10:59:54;;;;;;;9.55;6.85;;;7.90;99.90;;;;;;4936189;29;20208;-48
2020/12/05 11:02:21;;;;;;;9.38;5.55;;;7.90;99.90;;;;;;4935042;29;20291;-49
2020/12/05 11:04:49;;;;;;;10.40;7.60;;;7.80;99.90;;;;;;4936742;29;20204;-46
2020/12/05 11:07:16;;;;;;;11.02;5.65;;;7.80;99.90;;;;;;4936723;29;20205;-48
2020/12/05 11:09:43;;;;;;;12.27;7.47;;;7.80;99.90;;;;;;4936539;29;20184;-44
2020/12/05 11:12:10;;;;;;;14.57;7.85;;;7.80;99.90;;;;;;4935318;29;20196;-50
2020/12/05 11:14:37;;;;;;;9.20;6.78;;;7.80;99.90;;;;;;4936932;29;20240;-47
2020/12/05 11:17:05;;;;;;;9.60;6.93;;;7.70;99.90;;;;;;4937357;29;20574;-48
2020/12/05 11:19:32;;;;;;;11.63;6.07;;;7.70;99.90;;;;;;4936824;29;20188;-48
2020/12/05 11:22:00;;;;;;;9.70;7.45;;;7.70;99.90;;;;;;4937028;29;20196;-52
2020/12/05 11:24:27;;;;;;;11.15;6.70;;;7.60;99.90;;;;;;4952555;23;20231;-76
2020/12/05 11:26:55;;;;;;;10.50;5.93;;;7.60;99.90;;;;;;4976812;28;20282;-80
2020/12/05 11:29:26;;;;;;;9.40;5.88;;;7.60;99.90;;;;;;4980649;28;20200;-81
2020/12/05 11:31:55;;;;;;;8.00;5.85;;;7.60;99.90;;;;;;4983851;28;20200;-80
2020/12/05 11:34:26;;;;;;;11.55;6.35;;;7.70;99.90;;;;;;4983226;28;20180;-81
2020/12/05 11:36:54;;;;;;;9.30;6.65;;;7.70;99.90;;;;;;4983091;28;20674;-80
2020/12/05 11:39:21;;;;;;;14.07;7.10;;;7.80;99.90;;;;;;4982486;28;20195;-80
2020/12/05 11:41:48;;;;;;;10.48;7.57;;;7.90;99.90;;;;;;4982597;28;20204;-81
2020/12/05 11:44:35;;;;;;;8.32;6.72;;;8.00;99.90;;;;;;4982310;28;20187;-79
2020/12/05 11:47:04;;;;;;;11.02;6.95;;;8.00;99.90;;;;;;4982783;28;20222;-80
2020/12/05 11:49:32;;;;;;;13.38;7.38;;;8.10;99.90;;;;;;4980023;28;20226;-81
2020/12/05 11:52:01;;;;;;;10.25;7.65;;;8.10;99.90;;;;;;4979889;28;20715;-80
2020/12/05 11:54:29;;;;;;;10.20;6.75;;;8.00;99.90;;;;;;4979120;28;20227;-79
2020/12/05 11:56:56;;;;;;;11.65;7.80;;;8.00;99.90;;;;;;4979124;28;20192;-82
2020/12/05 11:59:24;;;;;;;10.90;7.25;;;8.00;99.90;;;;;;4979397;28;20199;-79
2020/12/05 12:01:52;;;;;;;11.05;8.10;;;7.90;99.90;;;;;;4978224;28;20230;-81
2020/12/05 12:04:20;;;;;;;13.55;7.00;;;7.90;99.90;;;;;;4978068;28;20204;-80
2020/12/05 12:06:49;;;;;;;13.75;7.30;;;7.80;99.90;;;;;;4978408;28;20201;-80
2020/12/05 12:09:16;;;;;;;12.23;7.40;;;7.80;99.90;;;;;;4977680;28;20191;-79
2020/12/05 12:11:47;;;;;;;8.40;5.65;;;7.90;99.90;;;;;;4986403;28;20179;-80
2020/12/05 12:14:14;;;;;;;10.30;6.75;;;7.90;99.90;;;;;;4993031;28;20176;-81
2020/12/05 12:16:41;;;;;;;9.48;7.15;;;7.80;99.90;;;;;;4986780;28;20202;-81
2020/12/05 12:19:09;;;;;;;13.35;7.90;;;7.80;99.90;;;;;;4979086;28;20368;-80
2020/12/05 12:21:36;;;;;;;11.02;7.55;;;7.70;99.90;;;;;;4992462;28;20618;-80
2020/12/05 12:24:05;;;;;;;11.60;7.20;;;7.70;99.90;;;;;;4990178;28;20176;-80
2020/12/05 12:26:32;;;;;;;10.02;6.80;;;7.60;99.90;;;;;;4985253;28;20242;-81
2020/12/05 12:29:00;;;;;;;12.40;9.25;;;7.60;99.90;;;;;;4986760;28;20203;-82
2020/12/05 12:31:29;;;;;;;11.40;6.57;;;7.50;99.90;;;;;;4986278;28;20188;-78
2020/12/05 12:33:57;;;;;;;13.32;8.27;;;7.40;99.90;;;;;;4984954;28;20192;-82
2020/12/05 12:36:25;;;;;;;12.02;8.40;;;7.30;99.90;;;;;;4988509;28;20211;-79
2020/12/05 12:38:52;;;;;;;11.40;7.25;;;7.30;99.90;;;;;;4993427;28;20730;-81
2020/12/05 12:41:21;;;;;;;11.85;8.82;;;7.20;99.90;;;;;;4994041;28;20175;-79
2020/12/05 12:43:50;;;;;;;8.98;7.05;;;7.20;99.90;;;;;;4993247;28;20722;-79
2020/12/05 12:46:21;;;;;;;12.60;8.90;;;7.20;99.90;;;;;;4983507;28;20219;-82
2020/12/05 12:48:49;;;;;;;12.85;7.20;;;7.20;99.90;;;;;;4981058;28;20653;-81
2020/12/05 12:51:21;;;;;;;13.52;8.52;;;7.30;99.90;;;;;;4978857;28;20290;-80
2020/12/05 12:53:49;;;;;;;9.82;6.75;;;7.30;99.90;;;;;;4981406;28;20198;-81
2020/12/05 12:56:19;;;;;;;14.60;8.18;;;7.30;99.90;;;;;;4980025;28;20219;-79